Time;durP1;ratioP1;P1;durP2;ratioP2;P2;SDS_P1;SDS_P2;PMS_P1;PMS_P2;Temp;Humidity;BMP_temperature;BMP_pressure;BME280_temperature;BME280_humidity;BME280_pressure;Samples;Min_cycle;Max_cycle;Signal;HPM_P1;HPM_P2
2023/11/02 00:01:54;;;;;;;2.13;0.70;;;12.60;99.90;;;;;;4954211;28;20480;-76
2023/11/02 00:04:40;;;;;;;2.85;0.80;;;12.60;99.90;;;;;;4952905;28;20545;-76
2023/11/02 00:07:27;;;;;;;2.63;0.73;;;12.60;99.90;;;;;;4940140;29;20047;-76
2023/11/02 00:10:13;;;;;;;4.07;0.82;;;12.60;99.90;;;;;;4969317;28;20129;-76
2023/11/02 00:12:59;;;;;;;4.20;0.80;;;12.50;99.90;;;;;;4954069;28;20047;-76
2023/11/02 00:15:45;;;;;;;4.20;0.90;;;12.50;99.90;;;;;;4960392;28;20039;-76
2023/11/02 00:18:31;;;;;;;4.97;0.85;;;12.40;99.90;;;;;;4939705;28;20061;-76
2023/11/02 00:21:21;;;;;;;3.28;0.90;;;12.40;99.90;;;;;;4948738;28;20039;-76
2023/11/02 00:24:07;;;;;;;2.55;0.90;;;12.40;99.90;;;;;;4974459;28;20379;-76
2023/11/02 00:26:54;;;;;;;2.10;0.70;;;12.30;99.90;;;;;;4950505;28;20494;-76
2023/11/02 00:29:41;;;;;;;2.53;0.80;;;12.30;99.90;;;;;;4941741;28;20058;-76
2023/11/02 00:32:27;;;;;;;8.85;1.50;;;12.20;99.90;;;;;;4949322;28;20046;-76
2023/11/02 00:35:13;;;;;;;3.83;0.82;;;12.20;99.90;;;;;;4949613;28;20476;-76
2023/11/02 00:37:59;;;;;;;2.95;1.05;;;12.10;99.90;;;;;;4974817;28;20046;-76
2023/11/02 00:40:45;;;;;;;6.15;1.20;;;12.10;99.90;;;;;;4958497;28;20031;-76
2023/11/02 00:43:31;;;;;;;3.88;0.60;;;12.10;99.90;;;;;;4977666;28;20094;-76
2023/11/02 00:46:17;;;;;;;4.40;0.90;;;12.10;99.90;;;;;;4967877;28;20097;-76
2023/11/02 00:49:03;;;;;;;2.83;0.60;;;12.10;99.90;;;;;;4964777;28;20057;-76
2023/11/02 00:51:55;;;;;;;7.35;1.05;;;12.10;99.90;;;;;;4964977;28;20202;-76
2023/11/02 00:54:47;;;;;;;2.85;0.90;;;12.00;99.90;;;;;;4950647;28;20511;-76
2023/11/02 00:57:39;;;;;;;7.88;1.00;;;12.00;99.90;;;;;;4977528;28;20070;-76
2023/11/02 01:00:41;;;;;;;5.55;1.20;;;12.00;99.90;;;;;;4964137;28;20089;-76
2023/11/02 01:03:27;;;;;;;3.83;0.90;;;11.80;99.90;;;;;;4977251;28;20035;-75
2023/11/02 01:06:25;;;;;;;3.47;0.75;;;11.80;99.90;;;;;;4976423;28;20217;-76
2023/11/02 01:09:15;;;;;;;1.85;1.00;;;11.70;99.90;;;;;;4961012;28;20648;-76
2023/11/02 01:12:00;;;;;;;3.30;1.00;;;11.60;99.90;;;;;;4978170;28;20050;-76
2023/11/02 01:14:48;;;;;;;3.45;0.80;;;11.50;99.90;;;;;;4946100;29;20058;-76
2023/11/02 01:17:37;;;;;;;6.97;0.97;;;11.50;99.90;;;;;;4961266;28;20063;-76
2023/11/02 01:20:43;;;;;;;5.30;0.95;;;11.40;99.90;;;;;;4959202;28;20090;-76
2023/11/02 01:23:30;;;;;;;6.55;0.80;;;11.40;99.90;;;;;;4970724;28;20487;-76
2023/11/02 01:26:39;;;;;;;3.35;0.70;;;11.40;99.90;;;;;;4961276;28;20796;-76
2023/11/02 01:29:26;;;;;;;3.28;0.70;;;11.40;99.90;;;;;;4971455;28;20054;-76
2023/11/02 01:32:12;;;;;;;2.63;1.00;;;11.30;99.90;;;;;;4958899;28;20039;-76
2023/11/02 01:34:58;;;;;;;3.08;0.65;;;11.30;99.90;;;;;;4964012;28;20053;-76
2023/11/02 01:37:45;;;;;;;6.38;1.23;;;11.30;99.90;;;;;;4951486;28;20122;-76
2023/11/02 01:40:48;;;;;;;4.82;0.65;;;11.30;99.90;;;;;;4945036;28;20039;-76
2023/11/02 01:43:43;;;;;;;3.63;0.80;;;11.30;99.90;;;;;;4961959;28;20039;-76
2023/11/02 01:46:59;;;;;;;2.25;0.77;;;11.20;99.90;;;;;;4976399;28;20050;-76
2023/11/02 01:49:51;;;;;;;3.25;0.70;;;11.20;99.90;;;;;;4976142;28;20043;-76
2023/11/02 01:52:52;;;;;;;2.53;0.93;;;11.20;99.90;;;;;;4957839;28;20086;-76
2023/11/02 01:55:48;;;;;;;6.20;1.52;;;11.20;99.90;;;;;;4943455;29;20062;-76
2023/11/02 01:59:01;;;;;;;4.88;1.00;;;11.20;99.90;;;;;;4972375;28;20066;-76
2023/11/02 02:01:58;;;;;;;7.15;1.13;;;11.10;99.90;;;;;;4961923;28;20099;-77
2023/11/02 02:04:54;;;;;;;1.92;0.65;;;11.10;99.90;;;;;;4953166;28;20119;-76
2023/11/02 02:07:43;;;;;;;4.65;0.98;;;11.20;99.90;;;;;;4952700;28;20078;-76
2023/11/02 02:10:42;;;;;;;5.85;1.10;;;11.10;99.90;;;;;;4977266;28;20066;-76
2023/11/02 02:14:04;;;;;;;3.13;0.90;;;11.10;99.90;;;;;;4933175;28;20420;-76
2023/11/02 02:17:19;;;;;;;6.00;0.80;;;11.10;99.90;;;;;;4967426;28;20047;-76
2023/11/02 02:20:09;;;;;;;4.15;0.90;;;11.00;99.90;;;;;;4932233;29;20861;-76
2023/11/02 02:23:01;;;;;;;2.97;0.82;;;11.00;99.90;;;;;;4935759;29;20050;-76
2023/11/02 02:26:09;;;;;;;1.75;0.70;;;10.90;99.90;;;;;;4938412;29;20051;-76
2023/11/02 02:28:55;;;;;;;;;;;10.90;99.90;;;;;;4938398;29;20051;-76
2023/11/02 02:31:55;;;;;;;3.20;0.90;;;10.80;99.90;;;;;;4936180;29;19914;-76
2023/11/02 02:35:34;;;;;;;7.95;0.98;;;10.80;99.90;;;;;;4935203;29;20055;-76
2023/11/02 02:38:30;;;;;;;2.92;0.73;;;10.70;99.90;;;;;;4891246;29;20851;-75
2023/11/02 02:41:17;;;;;;;5.05;1.17;;;10.70;99.90;;;;;;4912226;29;20082;-75
2023/11/02 02:44:03;;;;;;;2.88;0.80;;;10.70;99.90;;;;;;4937381;29;20425;-76
2023/11/02 02:46:49;;;;;;;7.45;1.20;;;10.70;99.90;;;;;;4937746;29;20036;-75
2023/11/02 02:49:39;;;;;;;6.18;1.20;;;10.70;99.90;;;;;;4917275;29;20370;-75
2023/11/02 02:52:26;;;;;;;2.85;0.80;;;10.60;99.90;;;;;;4931989;29;20103;-75
2023/11/02 02:55:12;;;;;;;3.80;0.80;;;10.60;99.90;;;;;;4903820;29;20051;-75
2023/11/02 02:57:58;;;;;;;2.92;0.80;;;10.60;99.90;;;;;;4918704;29;20033;-75
2023/11/02 03:00:44;;;;;;;4.53;0.80;;;10.60;99.90;;;;;;4935183;29;20035;-75
2023/11/02 03:03:30;;;;;;;3.65;0.70;;;10.50;99.90;;;;;;4917393;29;20059;-75
2023/11/02 03:06:16;;;;;;;2.40;0.65;;;10.50;99.90;;;;;;4904958;29;20373;-75
2023/11/02 03:09:03;;;;;;;4.10;0.70;;;10.50;99.90;;;;;;4924728;29;20357;-75
2023/11/02 03:11:53;;;;;;;4.07;1.15;;;10.50;99.90;;;;;;4936120;29;20102;-74
2023/11/02 03:14:40;;;;;;;2.85;0.93;;;10.50;99.90;;;;;;4902995;29;20054;-75
2023/11/02 03:17:50;;;;;;;6.30;0.93;;;10.50;99.90;;;;;;4915780;28;20118;-75
2023/11/02 03:20:36;;;;;;;2.88;0.90;;;10.50;99.90;;;;;;4978498;28;20038;-75
2023/11/02 03:23:38;;;;;;;1.95;0.65;;;10.50;99.90;;;;;;4974710;28;20109;-75
2023/11/02 03:26:40;;;;;;;4.30;1.00;;;10.50;99.90;;;;;;4975823;28;20039;-75
2023/11/02 03:29:47;;;;;;;1.83;0.65;;;10.50;99.90;;;;;;4966831;28;20039;-76
2023/11/02 03:32:39;;;;;;;2.00;0.95;;;10.50;99.90;;;;;;4965798;28;20563;-75
2023/11/02 03:35:28;;;;;;;3.15;0.80;;;10.50;99.90;;;;;;4962500;28;20494;-76
2023/11/02 03:38:51;;;;;;;4.63;1.00;;;10.40;99.90;;;;;;4959825;28;20046;-75
2023/11/02 03:41:49;;;;;;;3.88;0.90;;;10.40;99.90;;;;;;4957638;28;20053;-75
2023/11/02 03:44:58;;;;;;;1.83;0.70;;;10.50;99.90;;;;;;4962917;28;20046;-75
2023/11/02 03:47:56;;;;;;;4.25;0.90;;;10.40;99.90;;;;;;4964667;28;20583;-75
2023/11/02 03:50:52;;;;;;;9.43;1.35;;;10.40;99.90;;;;;;4961304;28;20043;-75
2023/11/02 03:53:43;;;;;;;2.20;0.70;;;10.40;99.90;;;;;;4974055;28;20114;-75
2023/11/02 03:56:51;;;;;;;4.55;1.00;;;10.40;99.90;;;;;;4969152;28;20062;-75
2023/11/02 03:59:51;;;;;;;2.17;0.80;;;10.40;99.90;;;;;;4963165;28;20039;-75
2023/11/02 04:02:43;;;;;;;6.30;1.05;;;10.50;99.90;;;;;;4975077;28;20034;-75
2023/11/02 04:05:37;;;;;;;2.17;1.00;;;10.40;99.90;;;;;;4958825;28;20105;-75
2023/11/02 04:08:25;;;;;;;7.95;1.30;;;10.50;99.90;;;;;;4951269;29;20375;-76
2023/11/02 04:11:29;;;;;;;6.55;1.27;;;10.40;99.90;;;;;;4962867;28;20042;-76
2023/11/02 04:14:18;;;;;;;4.22;0.95;;;10.40;99.90;;;;;;4945806;29;20773;-75
2023/11/02 04:17:06;;;;;;;3.55;0.90;;;10.40;99.90;;;;;;4951058;28;20134;-75
2023/11/02 04:19:52;;;;;;;3.45;0.88;;;10.30;99.90;;;;;;4950927;28;20038;-76
2023/11/02 04:22:39;;;;;;;2.70;0.90;;;10.30;99.90;;;;;;4964519;28;20039;-75
2023/11/02 04:25:25;;;;;;;4.40;0.77;;;10.30;99.90;;;;;;4973986;28;20483;-75
2023/11/02 04:28:11;;;;;;;2.80;0.80;;;10.30;99.90;;;;;;4956526;28;20133;-75
2023/11/02 04:30:57;;;;;;;1.75;0.70;;;10.30;99.90;;;;;;4950891;28;20134;-75
2023/11/02 04:33:43;;;;;;;1.55;0.80;;;10.30;99.90;;;;;;4932525;29;20476;-76
2023/11/02 04:36:29;;;;;;;3.08;0.80;;;10.40;99.90;;;;;;4957317;28;20395;-75
2023/11/02 04:39:15;;;;;;;3.78;1.10;;;10.30;99.90;;;;;;4949419;28;20042;-76
2023/11/02 04:42:01;;;;;;;3.65;0.90;;;10.30;99.90;;;;;;4977767;28;20467;-76
2023/11/02 04:44:47;;;;;;;4.00;0.80;;;10.30;99.90;;;;;;4980439;28;20046;-76
2023/11/02 04:47:33;;;;;;;3.40;0.88;;;10.40;99.90;;;;;;4958066;28;20043;-75
2023/11/02 04:50:20;;;;;;;7.25;0.85;;;10.40;99.90;;;;;;4975974;28;20138;-76
2023/11/02 04:53:06;;;;;;;3.40;1.02;;;10.40;99.90;;;;;;4962117;28;20046;-76
2023/11/02 04:55:52;;;;;;;2.50;0.90;;;10.40;99.90;;;;;;4975838;28;20475;-77
2023/11/02 04:58:38;;;;;;;2.33;0.80;;;10.40;99.90;;;;;;4958134;28;20042;-76
2023/11/02 05:01:24;;;;;;;3.13;1.05;;;10.30;99.90;;;;;;4979566;28;20038;-76
2023/11/02 05:04:10;;;;;;;4.28;1.00;;;10.40;99.90;;;;;;4960099;28;20097;-76
2023/11/02 05:06:57;;;;;;;3.47;1.20;;;10.30;99.90;;;;;;4964058;28;20039;-76
2023/11/02 05:09:43;;;;;;;4.03;0.77;;;10.40;99.90;;;;;;4962622;28;20122;-76
2023/11/02 05:12:29;;;;;;;3.13;1.02;;;10.40;99.90;;;;;;4967363;28;20045;-76
2023/11/02 05:15:16;;;;;;;3.85;0.80;;;10.50;99.90;;;;;;4949127;28;20545;-76
2023/11/02 05:18:02;;;;;;;5.30;0.90;;;10.50;99.90;;;;;;4971800;28;20050;-76
2023/11/02 05:20:50;;;;;;;5.88;1.10;;;10.50;99.90;;;;;;4978103;28;20065;-75
2023/11/02 05:23:36;;;;;;;5.28;1.40;;;10.50;99.90;;;;;;4962700;28;20039;-76
2023/11/02 05:26:22;;;;;;;2.45;0.80;;;10.50;99.90;;;;;;4975255;28;20043;-76
2023/11/02 05:29:08;;;;;;;3.40;0.90;;;10.50;99.90;;;;;;4974736;28;20079;-76
2023/11/02 05:31:54;;;;;;;4.65;0.93;;;10.50;99.90;;;;;;4974654;28;20090;-76
2023/11/02 05:34:40;;;;;;;4.93;0.80;;;10.50;99.90;;;;;;4971282;28;20074;-76
2023/11/02 05:37:27;;;;;;;2.28;0.80;;;10.50;99.90;;;;;;4965431;28;20058;-75
2023/11/02 05:40:13;;;;;;;2.55;0.77;;;10.50;99.90;;;;;;4956717;28;20047;-75
2023/11/02 05:42:59;;;;;;;2.58;0.80;;;10.50;99.90;;;;;;4959035;28;20527;-76
2023/11/02 05:45:45;;;;;;;4.18;1.27;;;10.50;99.90;;;;;;4944313;29;20043;-76
2023/11/02 05:48:31;;;;;;;3.35;0.77;;;10.50;99.90;;;;;;4970796;28;20054;-75
2023/11/02 05:51:16;;;;;;;2.58;0.70;;;10.50;99.90;;;;;;4954538;29;20570;-75
2023/11/02 05:54:04;;;;;;;5.15;0.90;;;10.50;99.90;;;;;;4966712;28;20042;-75
2023/11/02 05:56:50;;;;;;;5.85;1.00;;;10.50;99.90;;;;;;4944016;29;20051;-75
2023/11/02 05:59:36;;;;;;;3.83;0.93;;;10.50;99.90;;;;;;4934043;28;20496;-76
2023/11/02 06:02:22;;;;;;;2.20;0.98;;;10.50;99.90;;;;;;4967552;28;20081;-76
2023/11/02 06:05:08;;;;;;;3.28;0.80;;;10.50;99.90;;;;;;4969755;28;20038;-76
2023/11/02 06:07:54;;;;;;;2.50;0.90;;;10.50;99.90;;;;;;4962758;28;20039;-76
2023/11/02 06:10:40;;;;;;;4.10;1.05;;;10.50;99.90;;;;;;4950220;29;20050;-76
2023/11/02 06:13:26;;;;;;;6.20;1.17;;;10.50;99.90;;;;;;4961344;28;20039;-75
2023/11/02 06:16:12;;;;;;;2.95;0.95;;;10.50;99.90;;;;;;4958066;28;20042;-76
2023/11/02 06:18:58;;;;;;;2.90;0.80;;;10.50;99.90;;;;;;4973816;28;20519;-76
2023/11/02 06:21:44;;;;;;;2.67;0.90;;;10.60;99.90;;;;;;4957156;28;20035;-76
2023/11/02 06:24:30;;;;;;;6.40;1.42;;;10.60;99.90;;;;;;4965219;28;20049;-76
2023/11/02 06:27:16;;;;;;;4.40;1.08;;;10.60;99.90;;;;;;4953187;28;20079;-76
2023/11/02 06:30:02;;;;;;;3.00;0.70;;;10.60;99.90;;;;;;4945631;28;20036;-76
2023/11/02 06:32:48;;;;;;;3.90;0.95;;;10.70;99.90;;;;;;4959654;28;20035;-76
2023/11/02 06:35:35;;;;;;;5.60;1.20;;;10.70;99.90;;;;;;4965042;28;20042;-76
2023/11/02 06:38:24;;;;;;;6.22;0.90;;;10.70;99.90;;;;;;4970216;28;20078;-75
2023/11/02 06:41:10;;;;;;;3.83;0.90;;;10.70;99.90;;;;;;4971684;28;20042;-76
2023/11/02 06:43:56;;;;;;;4.13;0.90;;;10.70;99.90;;;;;;4991276;28;20049;-75
2023/11/02 06:46:46;;;;;;;4.15;0.90;;;10.70;99.90;;;;;;4974493;28;20660;-76
2023/11/02 06:49:32;;;;;;;7.43;0.90;;;10.70;99.90;;;;;;4973595;28;20146;-75
2023/11/02 06:52:19;;;;;;;6.15;1.05;;;10.70;99.90;;;;;;4960867;28;20043;-76
2023/11/02 06:55:05;;;;;;;2.80;0.82;;;10.70;99.90;;;;;;4954768;28;20043;-76
2023/11/02 06:57:51;;;;;;;7.43;1.10;;;10.80;99.90;;;;;;4930009;29;20093;-76
2023/11/02 07:00:37;;;;;;;2.45;1.00;;;10.70;99.90;;;;;;4975336;28;20074;-76
2023/11/02 07:03:23;;;;;;;4.97;0.88;;;10.80;99.90;;;;;;4985162;28;20041;-76
2023/11/02 07:06:09;;;;;;;13.02;1.88;;;10.80;99.90;;;;;;4966564;28;20049;-75
2023/11/02 07:08:55;;;;;;;2.13;0.73;;;10.70;99.90;;;;;;4940547;29;20049;-75
2023/11/02 07:11:42;;;;;;;5.57;0.93;;;10.70;99.90;;;;;;4985512;28;20437;-76
2023/11/02 07:14:27;;;;;;;3.47;1.00;;;10.70;99.90;;;;;;4961586;28;20038;-75
2023/11/02 07:17:14;;;;;;;3.53;0.93;;;10.70;99.90;;;;;;4955575;28;20427;-76
2023/11/02 07:20:00;;;;;;;2.47;0.90;;;10.70;99.90;;;;;;4962918;28;20206;-75
2023/11/02 07:22:46;;;;;;;4.78;1.38;;;10.70;99.90;;;;;;4970857;28;20038;-75
2023/11/02 07:25:32;;;;;;;7.28;0.90;;;10.70;99.90;;;;;;4974239;28;20720;-75
2023/11/02 07:28:18;;;;;;;5.90;1.70;;;10.70;99.90;;;;;;4961093;28;20039;-76
2023/11/02 07:31:07;;;;;;;4.57;0.88;;;10.70;99.90;;;;;;4951470;29;20053;-75
2023/11/02 07:33:53;;;;;;;2.72;1.08;;;10.80;99.90;;;;;;4972237;28;20468;-75
2023/11/02 07:36:39;;;;;;;4.47;1.70;;;10.80;99.90;;;;;;4975566;28;20046;-75
2023/11/02 07:39:25;;;;;;;2.65;1.00;;;10.80;99.90;;;;;;4955277;28;20043;-75
2023/11/02 07:42:11;;;;;;;7.28;0.90;;;10.90;99.90;;;;;;4947997;28;20040;-75
2023/11/02 07:44:57;;;;;;;2.88;0.80;;;10.90;99.90;;;;;;4959800;28;20349;-75
2023/11/02 07:47:43;;;;;;;4.05;1.02;;;10.90;99.90;;;;;;4973764;28;20420;-75
2023/11/02 07:50:29;;;;;;;6.22;1.10;;;11.00;99.90;;;;;;4973635;28;20038;-75
2023/11/02 07:53:15;;;;;;;7.15;1.55;;;11.00;99.90;;;;;;4967910;28;20046;-75
2023/11/02 07:56:01;;;;;;;1.63;0.77;;;10.90;99.90;;;;;;4944442;28;20114;-76
2023/11/02 07:58:47;;;;;;;3.95;1.00;;;10.90;99.90;;;;;;4972689;28;20110;-75
2023/11/02 08:01:33;;;;;;;5.65;1.08;;;11.00;99.90;;;;;;4959712;28;20456;-75
2023/11/02 08:04:19;;;;;;;6.07;1.08;;;11.00;99.90;;;;;;4962482;28;20476;-75
2023/11/02 08:07:07;;;;;;;3.78;1.20;;;10.90;99.90;;;;;;4968406;28;20656;-75
2023/11/02 08:09:53;;;;;;;4.72;1.20;;;11.00;99.90;;;;;;4943571;28;20043;-76
2023/11/02 08:12:39;;;;;;;2.65;0.80;;;11.00;99.90;;;;;;4964293;28;20129;-76
2023/11/02 08:15:25;;;;;;;3.17;1.35;;;11.10;99.90;;;;;;4961676;28;20503;-76
2023/11/02 08:18:11;;;;;;;4.15;0.90;;;11.10;99.90;;;;;;4960348;28;20743;-76
2023/11/02 08:20:57;;;;;;;2.00;0.80;;;11.10;99.90;;;;;;4942086;28;20035;-75
2023/11/02 08:23:43;;;;;;;5.60;1.05;;;11.10;99.90;;;;;;4979259;28;20030;-75
2023/11/02 08:26:29;;;;;;;3.63;0.90;;;11.10;99.90;;;;;;4964950;28;20041;-76
2023/11/02 08:29:15;;;;;;;4.78;0.80;;;11.20;99.90;;;;;;4957503;28;20077;-76
2023/11/02 08:32:04;;;;;;;2.03;0.70;;;11.20;99.90;;;;;;4960363;28;20065;-76
2023/11/02 08:34:50;;;;;;;2.70;0.98;;;11.20;99.90;;;;;;4944301;28;20039;-75
2023/11/02 08:37:36;;;;;;;6.60;1.30;;;11.30;99.90;;;;;;4986930;28;20528;-75
2023/11/02 08:40:22;;;;;;;4.18;0.82;;;11.30;99.90;;;;;;4980195;28;20038;-75
2023/11/02 08:43:08;;;;;;;2.33;0.57;;;11.30;99.90;;;;;;4993690;28;20048;-76
2023/11/02 08:45:54;;;;;;;5.13;0.90;;;11.40;99.90;;;;;;4961784;28;20105;-76
2023/11/02 08:48:40;;;;;;;3.17;0.98;;;11.40;99.90;;;;;;4947595;28;20043;-75
2023/11/02 08:51:25;;;;;;;6.72;1.00;;;11.50;99.90;;;;;;4955659;28;20460;-76
2023/11/02 08:54:12;;;;;;;3.25;0.80;;;11.50;99.90;;;;;;4945376;29;20047;-76
2023/11/02 08:56:58;;;;;;;3.05;0.80;;;11.50;99.90;;;;;;4957655;28;20051;-76
2023/11/02 08:59:44;;;;;;;2.80;0.80;;;11.60;99.90;;;;;;4957297;29;20043;-76
2023/11/02 09:02:32;;;;;;;5.88;1.08;;;11.60;99.90;;;;;;4975219;28;20046;-76
2023/11/02 09:05:18;;;;;;;6.88;1.20;;;11.60;99.90;;;;;;4948756;28;20074;-75
2023/11/02 09:08:04;;;;;;;2.78;0.70;;;11.60;99.90;;;;;;4961653;28;20157;-76
2023/11/02 09:10:50;;;;;;;2.90;0.60;;;11.70;99.90;;;;;;4958168;28;20607;-76
2023/11/02 09:13:36;;;;;;;5.18;0.80;;;11.70;99.90;;;;;;4976880;28;20041;-76
2023/11/02 09:16:22;;;;;;;1.80;0.70;;;11.80;99.90;;;;;;4977676;28;20047;-76
2023/11/02 09:19:08;;;;;;;2.35;0.65;;;11.80;99.90;;;;;;4986865;28;20118;-73
2023/11/02 09:21:54;;;;;;;2.28;0.90;;;11.80;99.90;;;;;;4961350;28;20071;-74
2023/11/02 09:24:41;;;;;;;1.65;0.88;;;11.80;99.90;;;;;;4957891;29;20716;-73
2023/11/02 09:27:27;;;;;;;3.20;0.82;;;11.80;99.90;;;;;;4959365;28;20121;-73
2023/11/02 09:30:13;;;;;;;2.78;0.60;;;11.80;99.90;;;;;;4962997;28;20053;-74
2023/11/02 09:32:59;;;;;;;2.55;1.00;;;11.80;99.90;;;;;;4980865;28;20058;-73
2023/11/02 09:35:45;;;;;;;2.05;0.70;;;11.90;99.90;;;;;;4964931;28;20045;-74
2023/11/02 09:38:31;;;;;;;1.45;0.63;;;11.90;99.90;;;;;;4968394;28;20042;-74
2023/11/02 09:41:18;;;;;;;1.55;0.70;;;11.90;99.90;;;;;;4977222;28;20097;-74
2023/11/02 09:44:06;;;;;;;2.00;0.70;;;11.90;99.90;;;;;;4967639;28;20371;-74
2023/11/02 09:46:52;;;;;;;2.47;0.82;;;11.90;99.90;;;;;;4961964;28;20042;-74
2023/11/02 09:49:38;;;;;;;1.98;0.60;;;11.90;99.90;;;;;;4961504;28;20038;-74
2023/11/02 09:52:24;;;;;;;2.58;0.63;;;12.00;99.90;;;;;;4976762;28;20042;-74
2023/11/02 09:55:10;;;;;;;4.25;0.70;;;12.00;99.90;;;;;;4964487;28;20722;-74
2023/11/02 09:57:57;;;;;;;1.67;0.60;;;12.10;99.90;;;;;;4956768;28;20039;-74
2023/11/02 10:00:46;;;;;;;2.92;1.02;;;12.10;99.90;;;;;;4976256;28;20066;-74
2023/11/02 10:03:31;;;;;;;1.35;0.47;;;12.10;99.90;;;;;;4950680;28;20039;-74
2023/11/02 10:06:17;;;;;;;1.85;0.40;;;12.10;99.90;;;;;;4949631;28;20043;-74
2023/11/02 10:09:04;;;;;;;4.78;1.75;;;12.20;99.90;;;;;;4962931;28;20035;-74
2023/11/02 10:11:50;;;;;;;4.00;1.58;;;12.20;99.90;;;;;;4938864;28;20078;-74
2023/11/02 10:14:36;;;;;;;3.88;1.65;;;12.30;99.90;;;;;;4957134;28;20034;-74
2023/11/02 10:17:23;;;;;;;3.63;0.93;;;12.30;99.90;;;;;;4976313;28;20042;-74
2023/11/02 10:20:13;;;;;;;3.78;0.75;;;12.30;99.90;;;;;;4976012;28;20030;-74
2023/11/02 10:23:00;;;;;;;2.60;0.82;;;12.40;99.90;;;;;;4962231;28;20117;-74
2023/11/02 10:25:46;;;;;;;4.37;1.03;;;12.40;99.90;;;;;;4942627;29;20039;-74
2023/11/02 10:28:32;;;;;;;1.35;0.47;;;12.40;99.90;;;;;;4960056;28;20290;-74
2023/11/02 10:31:20;;;;;;;1.73;0.45;;;12.40;99.90;;;;;;4961263;28;20046;-74
2023/11/02 10:34:07;;;;;;;1.98;0.68;;;12.40;99.90;;;;;;4956208;29;20054;-74
2023/11/02 10:36:54;;;;;;;2.45;0.50;;;12.50;99.90;;;;;;4958071;28;20047;-74
2023/11/02 10:39:40;;;;;;;1.65;0.70;;;12.60;99.90;;;;;;4978446;28;20061;-74
2023/11/02 10:42:27;;;;;;;0.95;0.55;;;12.60;99.90;;;;;;4980314;28;20125;-74
2023/11/02 10:45:13;;;;;;;2.47;0.70;;;12.60;99.90;;;;;;4974291;28;20035;-73
2023/11/02 10:47:59;;;;;;;3.92;0.70;;;12.60;99.90;;;;;;4962796;28;20053;-73
2023/11/02 10:50:46;;;;;;;2.75;0.47;;;12.70;99.90;;;;;;4948930;28;20531;-73
2023/11/02 10:53:44;;;;;;;2.97;0.80;;;12.70;99.90;;;;;;4960264;28;20502;-74
2023/11/02 10:56:41;;;;;;;2.55;0.75;;;12.70;99.90;;;;;;4949624;28;20311;-74
2023/11/02 10:59:28;;;;;;;1.77;0.57;;;12.80;99.90;;;;;;4942569;29;20031;-74
2023/11/02 11:02:15;;;;;;;2.15;0.63;;;12.70;99.90;;;;;;4950368;28;20049;-74
2023/11/02 11:05:04;;;;;;;2.72;0.68;;;12.70;99.90;;;;;;4949126;28;20085;-73
2023/11/02 11:07:56;;;;;;;1.50;0.63;;;12.60;99.90;;;;;;4960585;28;20189;-73
2023/11/02 11:10:43;;;;;;;2.45;0.70;;;12.60;99.90;;;;;;4936541;28;20042;-73
2023/11/02 11:13:30;;;;;;;5.72;0.70;;;12.60;99.90;;;;;;4948410;28;20035;-73
2023/11/02 11:16:16;;;;;;;1.92;0.70;;;12.60;99.90;;;;;;4949700;29;20051;-74
2023/11/02 11:19:02;;;;;;;2.65;0.73;;;12.60;99.90;;;;;;4957941;28;20054;-73
2023/11/02 11:21:48;;;;;;;1.58;0.80;;;12.60;99.90;;;;;;4962993;28;20038;-73
2023/11/02 11:24:33;;;;;;;1.38;0.60;;;12.60;99.90;;;;;;4973243;28;20037;-73
2023/11/02 11:27:36;;;;;;;2.05;0.60;;;12.60;99.90;;;;;;4946753;28;20047;-74
2023/11/02 11:30:22;;;;;;;2.53;0.60;;;12.60;99.90;;;;;;4943703;29;20043;-73
2023/11/02 11:33:47;;;;;;;1.13;0.80;;;12.70;99.90;;;;;;4956536;29;20039;-74
2023/11/02 11:36:34;;;;;;;1.98;0.30;;;12.70;99.90;;;;;;4979273;28;20043;-74
2023/11/02 11:39:36;;;;;;;2.78;0.68;;;12.80;99.90;;;;;;4969573;28;20046;-74
2023/11/02 11:43:15;;;;;;;3.05;1.20;;;12.80;99.90;;;;;;4954996;28;20492;-73
2023/11/02 11:46:02;;;;;;;2.10;0.60;;;12.80;99.90;;;;;;4956771;28;20058;-73
2023/11/02 11:48:48;;;;;;;2.08;0.63;;;12.80;99.90;;;;;;4962319;28;20129;-73
2023/11/02 11:51:42;;;;;;;1.95;0.63;;;12.90;99.90;;;;;;4961612;28;20656;-73
2023/11/02 11:54:30;;;;;;;3.38;0.60;;;12.90;99.90;;;;;;4951135;28;20031;-73
2023/11/02 11:57:54;;;;;;;2.75;0.63;;;12.90;99.90;;;;;;4937103;28;20039;-73
2023/11/02 12:00:50;;;;;;;1.58;0.75;;;12.90;99.90;;;;;;4956248;29;20031;-74
2023/11/02 12:03:39;;;;;;;2.60;0.60;;;13.00;99.90;;;;;;4965732;28;20498;-74
2023/11/02 12:06:45;;;;;;;4.20;0.75;;;13.00;99.90;;;;;;4968777;28;20130;-74
2023/11/02 12:09:30;;;;;;;0.93;0.45;;;13.00;99.90;;;;;;4940463;29;20051;-74
2023/11/02 12:12:18;;;;;;;1.55;0.50;;;13.10;99.90;;;;;;4940529;28;20081;-75
2023/11/02 12:15:25;;;;;;;1.25;0.55;;;13.10;99.90;;;;;;4961882;28;20070;-74
2023/11/02 12:18:13;;;;;;;2.42;0.50;;;13.10;99.90;;;;;;4960999;28;20058;-73
2023/11/02 12:21:00;;;;;;;;;;;13.20;99.90;;;;;;4959344;28;20376;-74
2023/11/02 12:23:52;;;;;;;3.22;0.70;;;13.20;99.90;;;;;;4965356;28;19921;-74
2023/11/02 12:26:41;;;;;;;1.42;0.75;;;13.20;99.90;;;;;;4956043;28;20098;-74
2023/11/02 12:29:27;;;;;;;1.52;0.70;;;13.30;99.90;;;;;;4965620;28;20042;-74
2023/11/02 12:32:13;;;;;;;2.25;0.77;;;13.40;99.90;;;;;;4962951;28;20121;-75
2023/11/02 12:35:12;;;;;;;3.13;0.65;;;13.40;99.90;;;;;;4976306;28;20054;-76
2023/11/02 12:38:02;;;;;;;1.38;0.55;;;13.60;99.90;;;;;;4967319;28;20533;-76
2023/11/02 12:40:49;;;;;;;1.13;0.50;;;13.70;99.90;;;;;;4945485;28;20072;-77
2023/11/02 12:43:39;;;;;;;0.50;0.40;;;13.80;99.90;;;;;;4954197;29;20122;-76
2023/11/02 12:46:25;;;;;;;3.95;0.80;;;13.80;99.90;;;;;;4954237;28;20081;-76
2023/11/02 12:49:18;;;;;;;2.13;0.95;;;13.80;99.90;;;;;;4961432;28;20113;-76
2023/11/02 12:52:07;;;;;;;1.83;0.57;;;13.80;99.90;;;;;;4978255;28;20043;-76
2023/11/02 12:55:00;;;;;;;1.42;0.65;;;13.80;99.90;;;;;;4960687;28;20410;-76
2023/11/02 12:57:46;;;;;;;2.40;0.60;;;13.80;99.90;;;;;;4957771;28;20122;-76
2023/11/02 13:00:33;;;;;;;1.77;0.50;;;13.90;99.90;;;;;;4960925;28;20042;-76
2023/11/02 13:03:20;;;;;;;4.20;1.02;;;13.90;99.90;;;;;;4967683;28;20348;-76
2023/11/02 13:06:25;;;;;;;2.20;0.60;;;13.80;99.90;;;;;;4967918;28;20043;-76
2023/11/02 13:09:18;;;;;;;0.93;0.40;;;13.90;99.90;;;;;;4956941;28;20039;-76
2023/11/02 13:12:10;;;;;;;1.23;0.60;;;13.90;99.90;;;;;;4933970;28;20506;-76
2023/11/02 13:14:56;;;;;;;1.85;0.50;;;13.90;99.90;;;;;;4933134;29;20476;-76
2023/11/02 13:17:44;;;;;;;1.20;0.60;;;13.90;99.90;;;;;;4960882;28;20476;-76
2023/11/02 13:20:31;;;;;;;1.83;0.50;;;14.00;99.90;;;;;;4975996;28;20078;-77
2023/11/02 13:23:17;;;;;;;3.83;0.93;;;14.00;99.90;;;;;;4966362;28;20038;-76
2023/11/02 13:26:06;;;;;;;1.98;0.70;;;14.10;99.90;;;;;;4993589;28;20039;-76
2023/11/02 13:28:52;;;;;;;2.83;0.50;;;14.10;99.90;;;;;;4963836;28;20133;-76
2023/11/02 13:31:39;;;;;;;1.48;0.65;;;14.10;99.90;;;;;;4972316;28;20046;-76
2023/11/02 13:34:25;;;;;;;1.63;0.40;;;14.10;99.90;;;;;;4955515;28;20069;-76
2023/11/02 13:37:12;;;;;;;2.83;0.70;;;14.10;99.90;;;;;;4981181;28;20054;-76
2023/11/02 13:40:00;;;;;;;3.67;0.80;;;14.10;99.90;;;;;;4979734;28;20681;-76
2023/11/02 13:42:47;;;;;;;3.97;1.55;;;14.10;99.90;;;;;;4961868;28;20069;-77
2023/11/02 13:45:33;;;;;;;2.20;0.50;;;14.00;99.90;;;;;;4957834;29;20047;-76
2023/11/02 13:48:18;;;;;;;3.58;0.68;;;14.10;99.90;;;;;;4934790;28;20086;-76
2023/11/02 13:51:05;;;;;;;1.45;0.70;;;14.00;99.90;;;;;;4967694;28;20105;-76
2023/11/02 13:53:51;;;;;;;1.23;0.50;;;14.00;99.90;;;;;;4955895;28;20811;-76
2023/11/02 13:56:37;;;;;;;2.53;0.70;;;14.00;99.90;;;;;;4956708;29;20070;-76
2023/11/02 13:59:23;;;;;;;2.90;0.68;;;14.00;99.90;;;;;;4950109;28;20412;-76
2023/11/02 14:02:17;;;;;;;1.50;0.60;;;14.00;99.90;;;;;;4971418;28;20460;-76
2023/11/02 14:05:03;;;;;;;5.05;1.10;;;14.00;99.90;;;;;;4956636;28;20093;-76
2023/11/02 14:07:49;;;;;;;3.50;0.60;;;13.90;99.90;;;;;;4969824;28;20051;-76
2023/11/02 14:10:35;;;;;;;0.90;0.60;;;13.90;99.90;;;;;;4975472;28;20098;-76
2023/11/02 14:13:21;;;;;;;4.40;0.70;;;13.90;99.90;;;;;;4954218;28;20043;-76
2023/11/02 14:16:08;;;;;;;1.92;0.73;;;13.90;99.90;;;;;;4967291;28;20465;-76
2023/11/02 14:18:54;;;;;;;2.75;0.80;;;13.90;99.90;;;;;;4970344;28;20432;-76
2023/11/02 14:21:40;;;;;;;2.53;0.90;;;13.90;99.90;;;;;;4943738;29;20043;-76
2023/11/02 14:24:27;;;;;;;2.65;0.70;;;13.90;99.90;;;;;;4957541;28;20044;-76
2023/11/02 14:27:16;;;;;;;4.05;1.05;;;13.90;99.90;;;;;;4961765;28;20051;-77
2023/11/02 14:30:03;;;;;;;2.30;0.65;;;13.90;99.90;;;;;;4949493;28;20093;-77
2023/11/02 14:32:49;;;;;;;2.85;0.80;;;13.90;99.90;;;;;;4948433;28;20039;-76
2023/11/02 14:35:36;;;;;;;2.15;0.70;;;13.90;99.90;;;;;;4961588;28;20584;-76
2023/11/02 14:38:22;;;;;;;3.72;0.85;;;13.90;99.90;;;;;;4976001;28;20054;-76
2023/11/02 14:41:08;;;;;;;4.07;0.70;;;13.90;99.90;;;;;;4950905;28;20038;-76
2023/11/02 14:43:55;;;;;;;8.30;1.50;;;13.90;99.90;;;;;;4963019;28;20073;-76